sensor_id;sensor_type;location;lat;lon;timestamp;P1;durP1;ratioP1;P2;durP2;ratioP2
64959;SDS011;51487;52.266;10.542;2023-07-31T00:01:56;3.45;;;1.67;;
64959;SDS011;51487;52.266;10.542;2023-07-31T00:04:22;4.60;;;1.75;;
64959;SDS011;51487;52.266;10.542;2023-07-31T00:06:48;4.90;;;2.10;;
64959;SDS011;51487;52.266;10.542;2023-07-31T00:09:13;3.03;;;1.75;;
64959;SDS011;51487;52.266;10.542;2023-07-31T00:11:39;6.45;;;2.25;;
64959;SDS011;51487;52.266;10.542;2023-07-31T00:14:04;3.53;;;1.92;;
64959;SDS011;51487;52.266;10.542;2023-07-31T00:16:30;5.60;;;1.70;;
64959;SDS011;51487;52.266;10.542;2023-07-31T00:18:56;4.82;;;1.98;;
64959;SDS011;51487;52.266;10.542;2023-07-31T00:21:21;3.50;;;1.60;;
64959;SDS011;51487;52.266;10.542;2023-07-31T00:23:47;7.25;;;1.85;;
64959;SDS011;51487;52.266;10.542;2023-07-31T00:26:14;3.53;;;1.55;;
64959;SDS011;51487;52.266;10.542;2023-07-31T00:28:39;2.92;;;1.58;;
64959;SDS011;51487;52.266;10.542;2023-07-31T00:31:05;2.83;;;1.60;;
64959;SDS011;51487;52.266;10.542;2023-07-31T00:33:31;4.47;;;1.77;;
64959;SDS011;51487;52.266;10.542;2023-07-31T00:35:56;3.92;;;1.73;;
64959;SDS011;51487;52.266;10.542;2023-07-31T00:38:22;4.97;;;1.92;;
64959;SDS011;51487;52.266;10.542;2023-07-31T00:40:49;8.32;;;2.22;;
64959;SDS011;51487;52.266;10.542;2023-07-31T00:43:14;3.78;;;1.80;;
64959;SDS011;51487;52.266;10.542;2023-07-31T00:45:40;10.15;;;2.03;;
64959;SDS011;51487;52.266;10.542;2023-07-31T00:48:05;4.38;;;1.90;;
64959;SDS011;51487;52.266;10.542;2023-07-31T00:50:32;6.30;;;1.90;;
64959;SDS011;51487;52.266;10.542;2023-07-31T00:52:58;4.93;;;2.20;;
64959;SDS011;51487;52.266;10.542;2023-07-31T00:55:24;3.17;;;1.90;;
64959;SDS011;51487;52.266;10.542;2023-07-31T00:57:50;4.68;;;1.95;;
64959;SDS011;51487;52.266;10.542;2023-07-31T01:00:17;4.63;;;1.90;;
64959;SDS011;51487;52.266;10.542;2023-07-31T01:02:44;4.40;;;2.03;;
64959;SDS011;51487;52.266;10.542;2023-07-31T01:05:10;7.53;;;2.10;;
64959;SDS011;51487;52.266;10.542;2023-07-31T01:07:46;5.55;;;2.00;;
64959;SDS011;51487;52.266;10.542;2023-07-31T01:10:41;4.50;;;2.42;;
64959;SDS011;51487;52.266;10.542;2023-07-31T01:13:19;4.85;;;1.90;;
64959;SDS011;51487;52.266;10.542;2023-07-31T01:15:46;7.55;;;2.05;;
64959;SDS011;51487;52.266;10.542;2023-07-31T01:18:12;5.13;;;1.83;;
64959;SDS011;51487;52.266;10.542;2023-07-31T01:20:37;4.57;;;1.65;;
64959;SDS011;51487;52.266;10.542;2023-07-31T01:23:13;5.90;;;2.00;;
64959;SDS011;51487;52.266;10.542;2023-07-31T01:26:12;5.00;;;2.03;;
64959;SDS011;51487;52.266;10.542;2023-07-31T01:28:49;4.18;;;1.70;;
64959;SDS011;51487;52.266;10.542;2023-07-31T01:31:40;4.38;;;1.80;;
64959;SDS011;51487;52.266;10.542;2023-07-31T01:34:13;3.90;;;1.70;;
64959;SDS011;51487;52.266;10.542;2023-07-31T01:36:42;4.72;;;1.88;;
64959;SDS011;51487;52.266;10.542;2023-07-31T01:39:08;6.22;;;1.92;;
64959;SDS011;51487;52.266;10.542;2023-07-31T01:41:34;2.60;;;1.48;;
64959;SDS011;51487;52.266;10.542;2023-07-31T01:43:59;4.40;;;1.73;;
64959;SDS011;51487;52.266;10.542;2023-07-31T01:46:25;4.07;;;1.60;;
64959;SDS011;51487;52.266;10.542;2023-07-31T01:48:51;2.90;;;1.60;;
64959;SDS011;51487;52.266;10.542;2023-07-31T01:51:16;4.35;;;1.45;;
64959;SDS011;51487;52.266;10.542;2023-07-31T01:53:42;3.47;;;1.60;;
64959;SDS011;51487;52.266;10.542;2023-07-31T01:56:07;4.00;;;1.63;;
64959;SDS011;51487;52.266;10.542;2023-07-31T01:58:33;3.25;;;1.60;;
64959;SDS011;51487;52.266;10.542;2023-07-31T02:00:58;2.78;;;1.60;;
64959;SDS011;51487;52.266;10.542;2023-07-31T02:03:24;4.10;;;1.98;;
64959;SDS011;51487;52.266;10.542;2023-07-31T02:05:50;4.60;;;1.48;;
64959;SDS011;51487;52.266;10.542;2023-07-31T02:08:16;3.25;;;1.77;;
64959;SDS011;51487;52.266;10.542;2023-07-31T02:10:42;3.38;;;1.88;;
64959;SDS011;51487;52.266;10.542;2023-07-31T02:13:08;2.67;;;1.58;;
64959;SDS011;51487;52.266;10.542;2023-07-31T02:15:34;5.93;;;2.03;;
64959;SDS011;51487;52.266;10.542;2023-07-31T02:17:59;4.18;;;2.38;;
64959;SDS011;51487;52.266;10.542;2023-07-31T02:20:25;3.63;;;1.88;;
64959;SDS011;51487;52.266;10.542;2023-07-31T02:22:51;3.55;;;1.60;;
64959;SDS011;51487;52.266;10.542;2023-07-31T02:25:16;2.72;;;1.48;;
64959;SDS011;51487;52.266;10.542;2023-07-31T02:27:42;3.65;;;1.40;;
64959;SDS011;51487;52.266;10.542;2023-07-31T02:30:08;4.28;;;1.73;;
64959;SDS011;51487;52.266;10.542;2023-07-31T02:32:34;2.78;;;1.30;;
64959;SDS011;51487;52.266;10.542;2023-07-31T02:35:00;3.30;;;1.60;;
64959;SDS011;51487;52.266;10.542;2023-07-31T02:37:26;1.20;;;1.10;;
64959;SDS011;51487;52.266;10.542;2023-07-31T02:39:53;1.95;;;1.30;;
64959;SDS011;51487;52.266;10.542;2023-07-31T02:42:20;4.43;;;1.25;;
64959;SDS011;51487;52.266;10.542;2023-07-31T02:44:45;3.78;;;1.30;;
64959;SDS011;51487;52.266;10.542;2023-07-31T02:47:11;5.15;;;1.40;;
64959;SDS011;51487;52.266;10.542;2023-07-31T02:49:36;2.72;;;1.30;;
64959;SDS011;51487;52.266;10.542;2023-07-31T02:52:02;2.22;;;1.40;;
64959;SDS011;51487;52.266;10.542;2023-07-31T02:54:28;2.88;;;1.35;;
64959;SDS011;51487;52.266;10.542;2023-07-31T02:56:53;2.22;;;1.38;;
64959;SDS011;51487;52.266;10.542;2023-07-31T02:59:19;3.65;;;1.52;;
64959;SDS011;51487;52.266;10.542;2023-07-31T03:01:45;3.40;;;1.30;;
64959;SDS011;51487;52.266;10.542;2023-07-31T03:04:11;2.45;;;1.70;;
64959;SDS011;51487;52.266;10.542;2023-07-31T03:06:36;5.60;;;1.67;;
64959;SDS011;51487;52.266;10.542;2023-07-31T03:09:02;4.25;;;1.48;;
64959;SDS011;51487;52.266;10.542;2023-07-31T03:11:27;3.67;;;1.77;;
64959;SDS011;51487;52.266;10.542;2023-07-31T03:13:53;3.25;;;1.80;;
64959;SDS011;51487;52.266;10.542;2023-07-31T03:16:19;2.10;;;1.38;;
64959;SDS011;51487;52.266;10.542;2023-07-31T03:18:44;3.28;;;1.95;;
64959;SDS011;51487;52.266;10.542;2023-07-31T03:21:10;4.45;;;1.48;;
64959;SDS011;51487;52.266;10.542;2023-07-31T03:23:35;4.13;;;1.88;;
64959;SDS011;51487;52.266;10.542;2023-07-31T03:26:02;2.45;;;1.50;;
64959;SDS011;51487;52.266;10.542;2023-07-31T03:28:30;3.85;;;2.00;;
64959;SDS011;51487;52.266;10.542;2023-07-31T03:30:56;3.55;;;1.70;;
64959;SDS011;51487;52.266;10.542;2023-07-31T03:33:21;2.13;;;1.60;;
64959;SDS011;51487;52.266;10.542;2023-07-31T03:35:47;4.07;;;1.98;;
64959;SDS011;51487;52.266;10.542;2023-07-31T03:38:12;3.15;;;1.80;;
64959;SDS011;51487;52.266;10.542;2023-07-31T03:40:38;3.85;;;2.03;;
64959;SDS011;51487;52.266;10.542;2023-07-31T03:43:04;3.22;;;1.80;;
64959;SDS011;51487;52.266;10.542;2023-07-31T03:45:30;3.90;;;1.80;;
64959;SDS011;51487;52.266;10.542;2023-07-31T03:47:56;4.93;;;2.22;;
64959;SDS011;51487;52.266;10.542;2023-07-31T03:50:21;3.92;;;1.70;;
64959;SDS011;51487;52.266;10.542;2023-07-31T03:52:47;4.75;;;1.80;;
64959;SDS011;51487;52.266;10.542;2023-07-31T03:55:13;2.63;;;1.65;;
64959;SDS011;51487;52.266;10.542;2023-07-31T03:57:39;2.80;;;1.60;;
64959;SDS011;51487;52.266;10.542;2023-07-31T04:00:07;3.85;;;1.63;;
64959;SDS011;51487;52.266;10.542;2023-07-31T04:02:34;4.40;;;1.83;;
64959;SDS011;51487;52.266;10.542;2023-07-31T04:05:01;3.80;;;1.73;;
64959;SDS011;51487;52.266;10.542;2023-07-31T04:07:27;3.95;;;2.00;;
64959;SDS011;51487;52.266;10.542;2023-07-31T04:09:56;3.28;;;1.80;;
64959;SDS011;51487;52.266;10.542;2023-07-31T04:12:22;2.85;;;1.50;;
64959;SDS011;51487;52.266;10.542;2023-07-31T04:14:48;2.75;;;1.95;;
64959;SDS011;51487;52.266;10.542;2023-07-31T04:17:14;2.20;;;1.40;;
64959;SDS011;51487;52.266;10.542;2023-07-31T04:19:40;1.73;;;1.25;;
64959;SDS011;51487;52.266;10.542;2023-07-31T04:22:05;2.30;;;1.52;;
64959;SDS011;51487;52.266;10.542;2023-07-31T04:24:31;2.97;;;1.20;;
64959;SDS011;51487;52.266;10.542;2023-07-31T04:26:57;1.60;;;1.05;;
64959;SDS011;51487;52.266;10.542;2023-07-31T04:29:24;2.53;;;1.30;;
64959;SDS011;51487;52.266;10.542;2023-07-31T04:31:49;2.05;;;1.33;;
64959;SDS011;51487;52.266;10.542;2023-07-31T04:34:16;1.75;;;1.50;;
64959;SDS011;51487;52.266;10.542;2023-07-31T04:36:51;4.30;;;1.50;;
64959;SDS011;51487;52.266;10.542;2023-07-31T04:39:17;3.38;;;1.40;;
64959;SDS011;51487;52.266;10.542;2023-07-31T04:41:42;1.48;;;1.20;;
64959;SDS011;51487;52.266;10.542;2023-07-31T04:44:08;3.15;;;1.40;;
64959;SDS011;51487;52.266;10.542;2023-07-31T04:46:36;2.33;;;1.35;;
64959;SDS011;51487;52.266;10.542;2023-07-31T04:49:02;2.63;;;1.20;;
64959;SDS011;51487;52.266;10.542;2023-07-31T04:51:28;1.85;;;1.17;;
64959;SDS011;51487;52.266;10.542;2023-07-31T04:53:53;2.80;;;1.30;;
64959;SDS011;51487;52.266;10.542;2023-07-31T04:56:19;2.05;;;1.20;;
64959;SDS011;51487;52.266;10.542;2023-07-31T04:58:44;2.47;;;1.50;;
64959;SDS011;51487;52.266;10.542;2023-07-31T05:01:10;3.53;;;1.33;;
64959;SDS011;51487;52.266;10.542;2023-07-31T05:03:38;1.48;;;1.10;;
64959;SDS011;51487;52.266;10.542;2023-07-31T05:06:03;2.17;;;1.30;;
64959;SDS011;51487;52.266;10.542;2023-07-31T05:08:29;2.00;;;1.60;;
64959;SDS011;51487;52.266;10.542;2023-07-31T05:10:54;3.35;;;1.30;;
64959;SDS011;51487;52.266;10.542;2023-07-31T05:13:20;1.58;;;1.35;;
64959;SDS011;51487;52.266;10.542;2023-07-31T05:15:48;2.17;;;1.30;;
64959;SDS011;51487;52.266;10.542;2023-07-31T05:18:14;1.58;;;1.30;;
64959;SDS011;51487;52.266;10.542;2023-07-31T05:20:40;1.85;;;1.30;;
64959;SDS011;51487;52.266;10.542;2023-07-31T05:23:06;2.63;;;1.30;;
64959;SDS011;51487;52.266;10.542;2023-07-31T05:25:32;4.57;;;1.42;;
64959;SDS011;51487;52.266;10.542;2023-07-31T05:27:57;1.88;;;1.38;;
64959;SDS011;51487;52.266;10.542;2023-07-31T05:30:23;2.97;;;1.50;;
64959;SDS011;51487;52.266;10.542;2023-07-31T05:32:49;3.55;;;1.60;;
64959;SDS011;51487;52.266;10.542;2023-07-31T05:35:14;2.55;;;1.30;;
64959;SDS011;51487;52.266;10.542;2023-07-31T05:37:40;2.67;;;1.60;;
64959;SDS011;51487;52.266;10.542;2023-07-31T05:40:06;3.53;;;1.58;;
64959;SDS011;51487;52.266;10.542;2023-07-31T05:42:32;3.08;;;1.63;;
64959;SDS011;51487;52.266;10.542;2023-07-31T05:44:57;2.35;;;1.30;;
64959;SDS011;51487;52.266;10.542;2023-07-31T05:47:23;4.20;;;1.40;;
64959;SDS011;51487;52.266;10.542;2023-07-31T05:49:49;2.80;;;1.50;;
64959;SDS011;51487;52.266;10.542;2023-07-31T05:52:17;2.35;;;1.40;;
64959;SDS011;51487;52.266;10.542;2023-07-31T05:54:44;1.98;;;1.40;;
64959;SDS011;51487;52.266;10.542;2023-07-31T05:57:11;1.58;;;1.27;;
64959;SDS011;51487;52.266;10.542;2023-07-31T05:59:36;3.58;;;1.70;;
64959;SDS011;51487;52.266;10.542;2023-07-31T06:02:03;3.47;;;1.60;;
64959;SDS011;51487;52.266;10.542;2023-07-31T06:04:29;2.83;;;1.65;;
64959;SDS011;51487;52.266;10.542;2023-07-31T06:06:55;1.95;;;1.55;;
64959;SDS011;51487;52.266;10.542;2023-07-31T06:09:21;2.95;;;2.03;;
64959;SDS011;51487;52.266;10.542;2023-07-31T06:11:46;2.63;;;1.70;;
64959;SDS011;51487;52.266;10.542;2023-07-31T06:14:12;2.22;;;1.73;;
64959;SDS011;51487;52.266;10.542;2023-07-31T06:16:38;5.22;;;1.83;;
64959;SDS011;51487;52.266;10.542;2023-07-31T06:19:03;3.80;;;2.00;;
64959;SDS011;51487;52.266;10.542;2023-07-31T06:21:29;2.40;;;1.60;;
64959;SDS011;51487;52.266;10.542;2023-07-31T06:23:56;6.90;;;2.42;;
64959;SDS011;51487;52.266;10.542;2023-07-31T06:26:21;6.15;;;2.72;;
64959;SDS011;51487;52.266;10.542;2023-07-31T06:28:47;4.47;;;2.33;;
64959;SDS011;51487;52.266;10.542;2023-07-31T06:31:12;8.52;;;2.25;;
64959;SDS011;51487;52.266;10.542;2023-07-31T06:33:38;4.50;;;2.40;;
64959;SDS011;51487;52.266;10.542;2023-07-31T06:36:04;3.75;;;2.50;;
64959;SDS011;51487;52.266;10.542;2023-07-31T06:38:29;6.63;;;2.70;;
64959;SDS011;51487;52.266;10.542;2023-07-31T06:40:55;5.20;;;3.03;;
64959;SDS011;51487;52.266;10.542;2023-07-31T06:43:21;4.70;;;2.83;;
64959;SDS011;51487;52.266;10.542;2023-07-31T06:45:46;6.43;;;3.13;;
64959;SDS011;51487;52.266;10.542;2023-07-31T06:48:15;6.60;;;3.17;;
64959;SDS011;51487;52.266;10.542;2023-07-31T06:50:41;6.40;;;3.10;;
64959;SDS011;51487;52.266;10.542;2023-07-31T06:53:06;5.82;;;3.13;;
64959;SDS011;51487;52.266;10.542;2023-07-31T06:55:32;5.55;;;3.10;;
64959;SDS011;51487;52.266;10.542;2023-07-31T06:57:58;5.20;;;3.30;;
64959;SDS011;51487;52.266;10.542;2023-07-31T07:00:23;6.40;;;3.00;;
64959;SDS011;51487;52.266;10.542;2023-07-31T07:02:49;5.03;;;3.42;;
64959;SDS011;51487;52.266;10.542;2023-07-31T07:05:16;6.53;;;2.90;;
64959;SDS011;51487;52.266;10.542;2023-07-31T07:07:42;6.95;;;3.70;;
64959;SDS011;51487;52.266;10.542;2023-07-31T07:10:09;5.80;;;3.38;;
64959;SDS011;51487;52.266;10.542;2023-07-31T07:12:35;7.18;;;3.30;;
64959;SDS011;51487;52.266;10.542;2023-07-31T07:15:01;6.53;;;3.20;;
64959;SDS011;51487;52.266;10.542;2023-07-31T07:17:28;5.65;;;3.13;;
64959;SDS011;51487;52.266;10.542;2023-07-31T07:19:56;8.75;;;3.70;;
64959;SDS011;51487;52.266;10.542;2023-07-31T07:22:22;5.47;;;3.40;;
64959;SDS011;51487;52.266;10.542;2023-07-31T07:24:49;8.63;;;4.18;;
64959;SDS011;51487;52.266;10.542;2023-07-31T07:27:14;5.55;;;3.83;;
64959;SDS011;51487;52.266;10.542;2023-07-31T07:29:40;6.95;;;4.28;;
64959;SDS011;51487;52.266;10.542;2023-07-31T07:32:06;12.93;;;4.50;;
64959;SDS011;51487;52.266;10.542;2023-07-31T07:34:32;8.02;;;4.30;;
64959;SDS011;51487;52.266;10.542;2023-07-31T07:36:57;8.25;;;4.28;;
64959;SDS011;51487;52.266;10.542;2023-07-31T07:39:23;7.05;;;4.00;;
64959;SDS011;51487;52.266;10.542;2023-07-31T07:41:50;9.82;;;4.50;;
64959;SDS011;51487;52.266;10.542;2023-07-31T07:44:18;8.60;;;4.28;;
64959;SDS011;51487;52.266;10.542;2023-07-31T07:46:43;11.82;;;5.03;;
64959;SDS011;51487;52.266;10.542;2023-07-31T07:49:09;7.72;;;4.60;;
64959;SDS011;51487;52.266;10.542;2023-07-31T07:51:34;8.43;;;4.85;;
64959;SDS011;51487;52.266;10.542;2023-07-31T07:54:00;9.02;;;4.93;;
64959;SDS011;51487;52.266;10.542;2023-07-31T07:56:29;9.02;;;4.68;;
64959;SDS011;51487;52.266;10.542;2023-07-31T07:58:55;11.77;;;5.47;;
64959;SDS011;51487;52.266;10.542;2023-07-31T08:01:21;13.45;;;5.30;;
64959;SDS011;51487;52.266;10.542;2023-07-31T08:03:46;9.95;;;5.22;;
64959;SDS011;51487;52.266;10.542;2023-07-31T08:06:13;10.52;;;4.82;;
64959;SDS011;51487;52.266;10.542;2023-07-31T08:08:39;10.35;;;5.10;;
64959;SDS011;51487;52.266;10.542;2023-07-31T08:11:05;10.32;;;4.40;;
64959;SDS011;51487;52.266;10.542;2023-07-31T08:13:31;7.63;;;4.35;;
64959;SDS011;51487;52.266;10.542;2023-07-31T08:15:57;9.52;;;4.95;;
64959;SDS011;51487;52.266;10.542;2023-07-31T08:18:23;10.20;;;5.00;;
64959;SDS011;51487;52.266;10.542;2023-07-31T08:20:48;8.95;;;4.68;;
64959;SDS011;51487;52.266;10.542;2023-07-31T08:23:14;10.07;;;4.60;;
64959;SDS011;51487;52.266;10.542;2023-07-31T08:25:40;9.68;;;4.90;;
64959;SDS011;51487;52.266;10.542;2023-07-31T08:28:06;7.63;;;3.95;;
64959;SDS011;51487;52.266;10.542;2023-07-31T08:30:32;10.40;;;4.10;;
64959;SDS011;51487;52.266;10.542;2023-07-31T08:33:01;8.80;;;4.35;;
64959;SDS011;51487;52.266;10.542;2023-07-31T08:35:28;9.57;;;4.22;;
64959;SDS011;51487;52.266;10.542;2023-07-31T08:37:54;7.38;;;4.10;;
64959;SDS011;51487;52.266;10.542;2023-07-31T08:40:22;9.75;;;4.60;;
64959;SDS011;51487;52.266;10.542;2023-07-31T08:42:49;8.57;;;4.35;;
64959;SDS011;51487;52.266;10.542;2023-07-31T08:45:19;7.97;;;3.95;;
64959;SDS011;51487;52.266;10.542;2023-07-31T08:47:49;8.90;;;3.58;;
64959;SDS011;51487;52.266;10.542;2023-07-31T08:50:22;9.32;;;4.38;;
64959;SDS011;51487;52.266;10.542;2023-07-31T08:52:49;9.85;;;3.80;;
64959;SDS011;51487;52.266;10.542;2023-07-31T08:55:22;8.75;;;4.15;;
64959;SDS011;51487;52.266;10.542;2023-07-31T08:58:15;10.05;;;4.10;;
64959;SDS011;51487;52.266;10.542;2023-07-31T09:00:45;9.07;;;4.30;;
64959;SDS011;51487;52.266;10.542;2023-07-31T09:03:16;10.52;;;4.30;;
64959;SDS011;51487;52.266;10.542;2023-07-31T09:06:19;11.50;;;4.70;;
64959;SDS011;51487;52.266;10.542;2023-07-31T09:08:36;9.77;;;4.03;;
64959;SDS011;51487;52.266;10.542;2023-07-31T09:11:07;8.30;;;4.10;;
64959;SDS011;51487;52.266;10.542;2023-07-31T09:13:33;9.10;;;4.25;;
64959;SDS011;51487;52.266;10.542;2023-07-31T09:15:59;10.88;;;4.75;;
64959;SDS011;51487;52.266;10.542;2023-07-31T09:18:24;7.35;;;4.20;;
64959;SDS011;51487;52.266;10.542;2023-07-31T09:23:42;8.25;;;4.35;;
64959;SDS011;51487;52.266;10.542;2023-07-31T09:26:10;9.90;;;4.25;;
64959;SDS011;51487;52.266;10.542;2023-07-31T09:31:31;8.35;;;3.90;;
64959;SDS011;51487;52.266;10.542;2023-07-31T09:34:05;6.90;;;3.65;;
64959;SDS011;51487;52.266;10.542;2023-07-31T09:36:31;7.10;;;3.13;;
64959;SDS011;51487;52.266;10.542;2023-07-31T09:39:03;6.03;;;3.13;;
64959;SDS011;51487;52.266;10.542;2023-07-31T09:41:30;5.95;;;3.42;;
64959;SDS011;51487;52.266;10.542;2023-07-31T09:43:56;7.68;;;3.38;;
64959;SDS011;51487;52.266;10.542;2023-07-31T09:46:22;6.38;;;3.53;;
64959;SDS011;51487;52.266;10.542;2023-07-31T09:49:10;6.90;;;3.27;;
64959;SDS011;51487;52.266;10.542;2023-07-31T09:51:38;7.40;;;3.55;;
64959;SDS011;51487;52.266;10.542;2023-07-31T09:54:10;7.40;;;3.10;;
64959;SDS011;51487;52.266;10.542;2023-07-31T09:56:46;5.35;;;3.13;;
64959;SDS011;51487;52.266;10.542;2023-07-31T09:59:17;7.70;;;3.50;;
64959;SDS011;51487;52.266;10.542;2023-07-31T10:01:45;7.43;;;3.30;;
64959;SDS011;51487;52.266;10.542;2023-07-31T10:04:12;6.70;;;3.28;;
64959;SDS011;51487;52.266;10.542;2023-07-31T10:09:11;9.25;;;3.42;;
64959;SDS011;51487;52.266;10.542;2023-07-31T10:11:47;5.95;;;3.30;;
64959;SDS011;51487;52.266;10.542;2023-07-31T10:14:28;6.13;;;3.00;;
64959;SDS011;51487;52.266;10.542;2023-07-31T10:16:56;7.00;;;3.22;;
64959;SDS011;51487;52.266;10.542;2023-07-31T10:19:23;9.13;;;3.45;;
64959;SDS011;51487;52.266;10.542;2023-07-31T10:21:51;7.65;;;3.22;;
64959;SDS011;51487;52.266;10.542;2023-07-31T10:24:25;5.80;;;3.00;;
64959;SDS011;51487;52.266;10.542;2023-07-31T10:26:52;9.48;;;3.28;;
64959;SDS011;51487;52.266;10.542;2023-07-31T10:29:22;9.75;;;4.22;;
64959;SDS011;51487;52.266;10.542;2023-07-31T10:31:49;8.48;;;4.45;;
64959;SDS011;51487;52.266;10.542;2023-07-31T10:34:16;6.05;;;3.25;;
64959;SDS011;51487;52.266;10.542;2023-07-31T10:36:43;6.40;;;2.95;;
64959;SDS011;51487;52.266;10.542;2023-07-31T10:42:12;4.50;;;2.13;;
64959;SDS011;51487;52.266;10.542;2023-07-31T10:44:43;4.00;;;2.35;;
64959;SDS011;51487;52.266;10.542;2023-07-31T10:47:17;4.18;;;2.53;;
64959;SDS011;51487;52.266;10.542;2023-07-31T10:49:46;4.28;;;2.25;;
64959;SDS011;51487;52.266;10.542;2023-07-31T10:52:12;2.85;;;1.88;;
64959;SDS011;51487;52.266;10.542;2023-07-31T10:54:39;2.85;;;1.95;;
64959;SDS011;51487;52.266;10.542;2023-07-31T10:57:18;2.50;;;1.98;;
64959;SDS011;51487;52.266;10.542;2023-07-31T10:59:48;4.97;;;2.30;;
64959;SDS011;51487;52.266;10.542;2023-07-31T11:02:38;3.80;;;2.35;;
64959;SDS011;51487;52.266;10.542;2023-07-31T11:05:08;4.70;;;2.40;;
64959;SDS011;51487;52.266;10.542;2023-07-31T11:07:47;4.82;;;2.00;;
64959;SDS011;51487;52.266;10.542;2023-07-31T11:10:19;3.80;;;2.30;;
64959;SDS011;51487;52.266;10.542;2023-07-31T11:12:45;5.15;;;2.42;;
64959;SDS011;51487;52.266;10.542;2023-07-31T11:15:12;5.30;;;2.00;;
64959;SDS011;51487;52.266;10.542;2023-07-31T11:17:40;3.90;;;2.17;;
64959;SDS011;51487;52.266;10.542;2023-07-31T11:20:06;4.70;;;2.20;;
64959;SDS011;51487;52.266;10.542;2023-07-31T11:22:34;6.90;;;2.70;;
64959;SDS011;51487;52.266;10.542;2023-07-31T11:25:02;4.75;;;2.30;;
64959;SDS011;51487;52.266;10.542;2023-07-31T11:27:29;4.88;;;2.33;;
64959;SDS011;51487;52.266;10.542;2023-07-31T11:30:02;4.78;;;2.28;;
64959;SDS011;51487;52.266;10.542;2023-07-31T11:32:28;4.03;;;2.50;;
64959;SDS011;51487;52.266;10.542;2023-07-31T11:34:56;4.75;;;2.50;;
64959;SDS011;51487;52.266;10.542;2023-07-31T11:37:22;4.40;;;2.50;;
64959;SDS011;51487;52.266;10.542;2023-07-31T11:39:58;3.58;;;2.00;;
64959;SDS011;51487;52.266;10.542;2023-07-31T11:42:25;4.63;;;2.10;;
64959;SDS011;51487;52.266;10.542;2023-07-31T11:44:53;4.95;;;2.20;;
64959;SDS011;51487;52.266;10.542;2023-07-31T11:47:19;4.18;;;2.13;;
64959;SDS011;51487;52.266;10.542;2023-07-31T11:49:45;7.07;;;2.80;;
64959;SDS011;51487;52.266;10.542;2023-07-31T11:52:13;3.72;;;2.60;;
64959;SDS011;51487;52.266;10.542;2023-07-31T11:54:45;3.53;;;2.22;;
64959;SDS011;51487;52.266;10.542;2023-07-31T11:57:12;4.05;;;2.25;;
64959;SDS011;51487;52.266;10.542;2023-07-31T11:59:38;5.18;;;2.60;;
64959;SDS011;51487;52.266;10.542;2023-07-31T12:02:05;3.17;;;2.00;;
64959;SDS011;51487;52.266;10.542;2023-07-31T12:04:31;4.65;;;2.47;;
64959;SDS011;51487;52.266;10.542;2023-07-31T12:06:59;4.18;;;2.28;;
64959;SDS011;51487;52.266;10.542;2023-07-31T12:09:28;4.75;;;2.10;;
64959;SDS011;51487;52.266;10.542;2023-07-31T12:11:57;4.15;;;1.92;;
64959;SDS011;51487;52.266;10.542;2023-07-31T12:14:25;3.80;;;2.15;;
64959;SDS011;51487;52.266;10.542;2023-07-31T12:17:03;3.05;;;2.17;;
64959;SDS011;51487;52.266;10.542;2023-07-31T12:19:32;3.97;;;2.30;;
64959;SDS011;51487;52.266;10.542;2023-07-31T12:22:00;3.65;;;2.25;;
64959;SDS011;51487;52.266;10.542;2023-07-31T12:24:28;4.63;;;2.35;;
64959;SDS011;51487;52.266;10.542;2023-07-31T12:26:54;4.70;;;2.33;;
64959;SDS011;51487;52.266;10.542;2023-07-31T12:29:21;3.78;;;2.15;;
64959;SDS011;51487;52.266;10.542;2023-07-31T12:31:49;4.35;;;2.50;;
64959;SDS011;51487;52.266;10.542;2023-07-31T12:34:16;3.72;;;2.13;;
64959;SDS011;51487;52.266;10.542;2023-07-31T12:36:46;3.22;;;2.00;;
64959;SDS011;51487;52.266;10.542;2023-07-31T12:39:15;3.28;;;2.10;;
64959;SDS011;51487;52.266;10.542;2023-07-31T12:41:44;3.95;;;2.00;;
64959;SDS011;51487;52.266;10.542;2023-07-31T12:44:13;2.88;;;2.00;;
64959;SDS011;51487;52.266;10.542;2023-07-31T12:46:42;2.65;;;1.73;;
64959;SDS011;51487;52.266;10.542;2023-07-31T12:49:10;4.32;;;1.90;;
64959;SDS011;51487;52.266;10.542;2023-07-31T12:52:05;2.92;;;2.00;;
64959;SDS011;51487;52.266;10.542;2023-07-31T12:54:31;3.65;;;1.83;;
64959;SDS011;51487;52.266;10.542;2023-07-31T12:57:05;6.40;;;2.33;;
64959;SDS011;51487;52.266;10.542;2023-07-31T12:59:33;5.57;;;1.77;;
64959;SDS011;51487;52.266;10.542;2023-07-31T13:02:04;3.03;;;1.77;;
64959;SDS011;51487;52.266;10.542;2023-07-31T13:04:30;3.05;;;1.77;;
64959;SDS011;51487;52.266;10.542;2023-07-31T13:06:57;2.97;;;1.90;;
64959;SDS011;51487;52.266;10.542;2023-07-31T13:09:25;2.50;;;1.60;;
64959;SDS011;51487;52.266;10.542;2023-07-31T13:11:50;3.63;;;2.10;;
64959;SDS011;51487;52.266;10.542;2023-07-31T13:14:16;3.25;;;1.83;;
64959;SDS011;51487;52.266;10.542;2023-07-31T13:16:42;5.03;;;1.90;;
64959;SDS011;51487;52.266;10.542;2023-07-31T13:19:07;1.95;;;1.67;;
64959;SDS011;51487;52.266;10.542;2023-07-31T13:21:33;4.35;;;1.70;;
64959;SDS011;51487;52.266;10.542;2023-07-31T13:24:02;2.35;;;1.60;;
64959;SDS011;51487;52.266;10.542;2023-07-31T13:26:29;1.88;;;1.63;;
64959;SDS011;51487;52.266;10.542;2023-07-31T13:28:55;3.53;;;1.50;;
64959;SDS011;51487;52.266;10.542;2023-07-31T13:31:21;2.42;;;1.77;;
64959;SDS011;51487;52.266;10.542;2023-07-31T13:33:48;2.55;;;1.48;;
64959;SDS011;51487;52.266;10.542;2023-07-31T13:36:14;2.28;;;1.50;;
64959;SDS011;51487;52.266;10.542;2023-07-31T13:38:40;2.50;;;1.48;;
64959;SDS011;51487;52.266;10.542;2023-07-31T13:41:09;2.42;;;1.45;;
64959;SDS011;51487;52.266;10.542;2023-07-31T13:43:34;1.90;;;1.30;;
64959;SDS011;51487;52.266;10.542;2023-07-31T13:46:14;3.47;;;1.65;;
64959;SDS011;51487;52.266;10.542;2023-07-31T13:48:39;1.77;;;1.17;;
64959;SDS011;51487;52.266;10.542;2023-07-31T13:51:05;1.42;;;1.33;;
64959;SDS011;51487;52.266;10.542;2023-07-31T13:53:31;1.85;;;0.93;;
64959;SDS011;51487;52.266;10.542;2023-07-31T13:55:57;1.33;;;1.23;;
64959;SDS011;51487;52.266;10.542;2023-07-31T13:58:26;1.60;;;1.02;;
64959;SDS011;51487;52.266;10.542;2023-07-31T14:00:52;1.05;;;0.70;;
64959;SDS011;51487;52.266;10.542;2023-07-31T14:03:21;0.70;;;0.70;;
64959;SDS011;51487;52.266;10.542;2023-07-31T14:05:47;2.05;;;0.88;;
64959;SDS011;51487;52.266;10.542;2023-07-31T14:08:16;1.02;;;0.90;;
64959;SDS011;51487;52.266;10.542;2023-07-31T14:10:41;0.73;;;0.73;;
64959;SDS011;51487;52.266;10.542;2023-07-31T14:13:07;0.70;;;0.70;;
64959;SDS011;51487;52.266;10.542;2023-07-31T14:15:33;1.10;;;1.00;;
64959;SDS011;51487;52.266;10.542;2023-07-31T14:18:08;0.90;;;0.88;;
64959;SDS011;51487;52.266;10.542;2023-07-31T14:20:36;2.00;;;1.15;;
64959;SDS011;51487;52.266;10.542;2023-07-31T14:23:04;2.97;;;1.02;;
64959;SDS011;51487;52.266;10.542;2023-07-31T14:25:33;1.42;;;0.80;;
64959;SDS011;51487;52.266;10.542;2023-07-31T14:30:46;0.77;;;0.77;;
64959;SDS011;51487;52.266;10.542;2023-07-31T14:33:11;0.82;;;0.70;;
64959;SDS011;51487;52.266;10.542;2023-07-31T14:35:40;1.35;;;0.70;;
64959;SDS011;51487;52.266;10.542;2023-07-31T14:38:14;1.15;;;0.88;;
64959;SDS011;51487;52.266;10.542;2023-07-31T14:40:44;0.70;;;0.70;;
64959;SDS011;51487;52.266;10.542;2023-07-31T14:43:15;1.63;;;0.90;;
64959;SDS011;51487;52.266;10.542;2023-07-31T14:45:41;1.83;;;0.90;;
64959;SDS011;51487;52.266;10.542;2023-07-31T14:48:07;1.77;;;0.80;;
64959;SDS011;51487;52.266;10.542;2023-07-31T14:50:33;1.00;;;0.90;;